Asharoken, New York
Current Conditions -  °F | °C
As of 8:53 AM on Saturday 25 Oct 2014 (Local Time) from KFRG Reporting Station
Clear Clear  
Wind Chill: 52°   Ceiling: Unl
Heat Index: 52°   Visibility: 10mi
Dew Point: 40°   Wind: 7mph
Humidity: 63%   Direction: 310°NW
Pressure: 29.85"   Gusts: NA
Location:  40.9096°N, 73.3231°W
Report Text: KFRG 251253Z 31006KT 10SM CLR 11/04 A2985 RMK AO2 SLP109 T01110044
Loading
Personal Weather Stations






























Interactive Weather Map New forecast layout! Learn more

10-Day Weather Forecast

Advertisements
Track Severe Weather on mobile